Time;durP1;ratioP1;P1;durP2;ratioP2;P2;SDS_P1;SDS_P2;PMS_P1;PMS_P2;Temp;Humidity;BMP_temperature;BMP_pressure;BME280_temperature;BME280_humidity;BME280_pressure;Samples;Min_cycle;Max_cycle;Signal;HPM_P1;HPM_P2
2021/09/10 00:01:18;;;;;;;42.50;22.88;;;;;15.70;100499.00;;;;5045642;28;20053;-75
2021/09/10 00:03:47;;;;;;;25.55;23.38;;;;;15.70;100500.00;;;;5046029;28;20049;-74
2021/09/10 00:06:16;;;;;;;5.82;5.40;;;;;15.80;100499.00;;;;5045839;28;20131;-75
2021/09/10 00:08:45;;;;;;;5.13;4.88;;;;;15.70;100501.00;;;;5047575;28;20603;-76
2021/09/10 00:11:14;;;;;;;4.45;0.40;;;;;15.70;100515.00;;;;5049597;28;20753;-76
2021/09/10 00:13:43;;;;;;;10.27;9.02;;;;;15.80;100506.00;;;;5049495;28;20053;-74
2021/09/10 00:16:12;;;;;;;1.92;1.83;;;;;15.70;100513.00;;;;5049827;28;20083;-77
2021/09/10 00:18:41;;;;;;;0.65;0.52;;;;;15.70;100486.00;;;;5049440;28;20209;-76
2021/09/10 00:21:10;;;;;;;2.97;0.60;;;;;15.60;100492.00;;;;5050150;28;20053;-77
2021/09/10 00:23:39;;;;;;;2.42;0.70;;;;;15.60;100495.00;;;;5049841;28;20048;-76
2021/09/10 00:26:08;;;;;;;0.80;0.70;;;;;15.70;100463.00;;;;5049381;28;20053;-77
2021/09/10 00:28:36;;;;;;;0.95;0.50;;;;;15.70;100497.00;;;;5048973;28;20072;-76
2021/09/10 00:31:05;;;;;;;5.55;0.93;;;;;15.70;100502.00;;;;5049221;28;20045;-74
2021/09/10 00:33:35;;;;;;;2.03;1.10;;;;;15.70;100487.00;;;;5047890;28;20052;-75
2021/09/10 00:36:04;;;;;;;15.50;14.48;;;;;15.70;100493.00;;;;5049247;28;20049;-77
2021/09/10 00:38:34;;;;;;;48.33;13.82;;;;;15.80;100503.00;;;;5049283;28;20156;-77
2021/09/10 00:41:03;;;;;;;4.80;4.53;;;;;15.80;100516.00;;;;5049594;28;20152;-76
2021/09/10 00:43:32;;;;;;;1.25;1.15;;;;;15.80;100496.00;;;;5048013;28;20810;-76
2021/09/10 00:46:01;;;;;;;3.40;3.13;;;;;15.80;100513.00;;;;5048595;28;20130;-76
2021/09/10 00:48:30;;;;;;;3.63;3.45;;;;;15.70;100492.00;;;;5048623;28;20045;-76
2021/09/10 00:50:59;;;;;;;1.55;0.60;;;;;15.70;100503.00;;;;5049239;28;20056;-76
2021/09/10 00:53:28;;;;;;;2.55;0.55;;;;;15.80;100515.00;;;;5048909;28;20059;-77
2021/09/10 00:55:58;;;;;;;150.65;123.78;;;;;15.70;100516.00;;;;5048832;28;20056;-76
2021/09/10 00:58:27;;;;;;;8.43;7.45;;;;;15.70;100528.00;;;;5049224;28;20049;-75
2021/09/10 01:00:56;;;;;;;0.57;0.50;;;;;15.70;100518.00;;;;5049121;28;20053;-76
2021/09/10 01:03:25;;;;;;;4.95;3.25;;;;;15.70;100530.00;;;;5049357;28;20154;-75
2021/09/10 01:05:57;;;;;;;0.93;0.50;;;;;15.70;100531.00;;;;5048650;28;20057;-77
2021/09/10 01:08:29;;;;;;;0.95;0.45;;;;;15.80;100528.00;;;;5048529;28;20055;-76
2021/09/10 01:11:00;;;;;;;0.73;0.68;;;;;15.70;100544.00;;;;5048973;28;20049;-76
2021/09/10 01:13:30;;;;;;;0.50;0.50;;;;;15.70;100535.00;;;;5048643;28;20136;-78
2021/09/10 01:16:00;;;;;;;1.40;0.73;;;;;15.80;100562.00;;;;5049163;28;20490;-77
2021/09/10 01:18:29;;;;;;;43.67;10.65;;;;;15.70;100535.00;;;;5048033;28;20425;-76
2021/09/10 01:20:58;;;;;;;2.30;1.90;;;;;15.70;100531.00;;;;5048313;28;20056;-76
2021/09/10 01:23:27;;;;;;;1.05;0.70;;;;;15.70;100547.00;;;;5048460;28;20413;-75
2021/09/10 01:25:56;;;;;;;2.20;0.52;;;;;15.70;100544.00;;;;5048488;28;20147;-76
2021/09/10 01:28:26;;;;;;;0.40;0.40;;;;;15.60;100566.00;;;;5047892;28;20051;-75
2021/09/10 01:30:54;;;;;;;1.65;1.58;;;;;15.70;100557.00;;;;5048287;28;20055;-76
2021/09/10 01:33:24;;;;;;;8.73;8.02;;;;;15.70;100556.00;;;;5048224;28;20072;-77
2021/09/10 01:35:54;;;;;;;4.20;3.90;;;;;15.60;100543.00;;;;5048510;28;20107;-75
2021/09/10 01:38:24;;;;;;;0.57;0.50;;;;;15.70;100545.00;;;;5047982;28;20569;-76
2021/09/10 01:40:54;;;;;;;0.43;0.35;;;;;15.70;100533.00;;;;5046960;28;20076;-77
2021/09/10 01:43:23;;;;;;;0.52;0.45;;;;;15.60;100548.00;;;;5047981;28;20088;-75
2021/09/10 01:45:52;;;;;;;4.78;0.63;;;;;15.60;100522.00;;;;5048135;28;20075;-76
2021/09/10 01:48:21;;;;;;;0.35;0.20;;;;;15.60;100524.00;;;;5047915;28;20040;-76
2021/09/10 01:50:50;;;;;;;0.73;0.40;;;;;15.50;100533.00;;;;5048477;28;20098;-74
2021/09/10 01:53:20;;;;;;;2.08;0.30;;;;;15.50;100548.00;;;;5048758;28;20040;-76
2021/09/10 01:55:49;;;;;;;2.25;0.40;;;;;15.50;100537.00;;;;5047592;28;20057;-75
2021/09/10 01:58:18;;;;;;;10.48;2.10;;;;;15.50;100539.00;;;;5048240;28;20055;-75
2021/09/10 02:00:48;;;;;;;2.22;0.70;;;;;15.40;100542.00;;;;5047790;28;20044;-75
2021/09/10 02:03:17;;;;;;;1.80;0.77;;;;;15.40;100520.00;;;;5047716;28;20114;-75
2021/09/10 02:05:47;;;;;;;3.65;0.90;;;;;15.40;100524.00;;;;5048341;28;20053;-75
2021/09/10 02:08:16;;;;;;;1.27;0.80;;;;;15.40;100538.00;;;;5047362;28;20049;-75
2021/09/10 02:10:45;;;;;;;2.70;0.77;;;;;15.30;100534.00;;;;5048202;28;20620;-76
2021/09/10 02:13:16;;;;;;;55.92;49.95;;;;;15.30;100519.00;;;;5048220;28;20057;-76
2021/09/10 02:15:45;;;;;;;6.25;5.88;;;;;15.30;100539.00;;;;5047719;28;20057;-76
2021/09/10 02:18:14;;;;;;;3.85;3.55;;;;;15.30;100526.00;;;;5047707;28;20558;-76
2021/09/10 02:20:43;;;;;;;2.00;1.80;;;;;15.30;100521.00;;;;5047458;28;20420;-76
2021/09/10 02:23:11;;;;;;;1.40;1.30;;;;;15.30;100503.00;;;;5046039;28;20056;-75
2021/09/10 02:25:40;;;;;;;2.00;1.63;;;;;15.30;100522.00;;;;5046876;28;20424;-76
2021/09/10 02:28:09;;;;;;;1.30;0.40;;;;;15.30;100531.00;;;;5048163;28;20045;-76
2021/09/10 02:30:38;;;;;;;0.50;0.50;;;;;15.20;100515.00;;;;5046714;28;20512;-75
2021/09/10 02:33:07;;;;;;;1.38;1.27;;;;;15.20;100524.00;;;;5045726;28;20053;-75
2021/09/10 02:35:36;;;;;;;220.00;90.20;;;;;15.20;100503.00;;;;5047105;28;20051;-75
2021/09/10 02:38:05;;;;;;;101.78;41.67;;;;;15.20;100524.00;;;;5047077;28;20049;-76
2021/09/10 02:40:35;;;;;;;270.65;150.25;;;;;15.20;100506.00;;;;5047119;28;20057;-76
2021/09/10 02:43:04;;;;;;;1.70;1.63;;;;;15.20;100517.00;;;;5047229;28;20049;-75
2021/09/10 02:45:33;;;;;;;0.28;0.28;;;;;15.20;100528.00;;;;5046547;28;20596;-75
2021/09/10 02:48:03;;;;;;;77.55;19.88;;;;;15.20;100527.00;;;;5047169;28;20099;-74
2021/09/10 02:50:32;;;;;;;1.98;1.50;;;;;15.20;100524.00;;;;5046913;28;20053;-75
2021/09/10 02:53:02;;;;;;;10.30;9.57;;;;;15.20;100536.00;;;;5046599;28;20056;-75
2021/09/10 02:55:31;;;;;;;2.05;1.45;;;;;15.10;100553.00;;;;5046910;28;20610;-74
2021/09/10 02:58:00;;;;;;;2.53;1.20;;;;;15.00;100545.00;;;;5046210;28;20098;-76
2021/09/10 03:00:29;;;;;;;1.88;1.77;;;;;14.90;100528.00;;;;5046597;28;20075;-74
2021/09/10 03:02:58;;;;;;;1.60;1.50;;;;;14.80;100545.00;;;;5046921;28;20055;-76
2021/09/10 03:05:29;;;;;;;3.97;3.78;;;;;14.70;100531.00;;;;5046863;28;20140;-75
2021/09/10 03:07:58;;;;;;;0.20;0.20;;;;;14.50;100517.00;;;;5046695;28;20059;-75
2021/09/10 03:10:27;;;;;;;559.15;239.88;;;;;14.50;100536.00;;;;5046453;28;20045;-76
2021/09/10 03:12:56;;;;;;;29.60;27.20;;;;;14.40;100540.00;;;;5046207;28;20057;-75
2021/09/10 03:15:25;;;;;;;0.60;0.60;;;;;14.30;100550.00;;;;5046492;28;20060;-75
2021/09/10 03:17:54;;;;;;;0.32;0.32;;;;;14.20;100547.00;;;;5046778;28;20056;-76
2021/09/10 03:20:22;;;;;;;0.73;0.40;;;;;14.10;100533.00;;;;5046304;28;20055;-75
2021/09/10 03:22:51;;;;;;;51.92;46.95;;;;;14.00;100547.00;;;;5046680;28;20055;-76
2021/09/10 03:25:20;;;;;;;3.70;3.40;;;;;13.90;100525.00;;;;5046087;28;20056;-76
2021/09/10 03:27:50;;;;;;;1.48;0.50;;;;;13.80;100533.00;;;;5046580;28;20393;-75
2021/09/10 03:30:20;;;;;;;0.52;0.30;;;;;13.80;100519.00;;;;5046696;28;20056;-77
2021/09/10 03:32:49;;;;;;;5.70;5.30;;;;;13.70;100521.00;;;;5046152;28;20053;-76
2021/09/10 03:35:18;;;;;;;4.20;3.35;;;;;13.60;100493.00;;;;5046359;28;20045;-74
2021/09/10 03:37:47;;;;;;;3.60;3.22;;;;;13.50;100493.00;;;;5045865;28;20136;-76
2021/09/10 03:40:16;;;;;;;11.95;11.10;;;;;13.40;100496.00;;;;5046245;28;20057;-74
2021/09/10 03:42:45;;;;;;;209.90;94.47;;;;;13.30;100476.00;;;;5046282;28;20041;-74
2021/09/10 03:45:15;;;;;;;203.85;91.68;;;;;13.30;100500.00;;;;5046238;28;20060;-76
2021/09/10 03:47:44;;;;;;;613.72;353.92;;;;;13.20;100479.00;;;;5045936;28;20041;-75
2021/09/10 03:50:13;;;;;;;879.25;117.28;;;;;13.20;100463.00;;;;5045703;28;20441;-75
2021/09/10 03:52:41;;;;;;;1999.90;999.90;;;;;13.20;100473.00;;;;5045994;28;20048;-75
2021/09/10 03:55:14;;;;;;;0.70;0.70;;;;;13.20;100466.00;;;;5045988;28;20045;-73
2021/09/10 03:57:43;;;;;;;85.80;80.03;;;;;13.20;100484.00;;;;5045355;28;20049;-74
2021/09/10 04:00:13;;;;;;;0.85;0.85;;;;;13.20;100494.00;;;;5046588;28;20064;-74
2021/09/10 04:02:42;;;;;;;0.00;0.00;;;;;13.20;100476.00;;;;5045300;28;20053;-75
2021/09/10 04:05:11;;;;;;;1.75;0.40;;;;;13.20;100499.00;;;;5046098;28;20405;-74
2021/09/10 04:07:40;;;;;;;4.22;3.92;;;;;13.30;100524.00;;;;5045770;28;20132;-74
2021/09/10 04:10:10;;;;;;;0.28;0.28;;;;;13.30;100492.00;;;;5045879;28;20060;-74
2021/09/10 04:12:38;;;;;;;286.35;70.22;;;;;13.30;100508.00;;;;5046459;28;20075;-73
2021/09/10 04:15:08;;;;;;;0.57;0.40;;;;;13.30;100501.00;;;;5045920;28;20049;-76
2021/09/10 04:17:37;;;;;;;0.35;0.35;;;;;13.30;100512.00;;;;5045915;28;20077;-74
2021/09/10 04:20:06;;;;;;;248.43;74.50;;;;;13.20;100525.00;;;;5045938;28;20522;-73
2021/09/10 04:22:35;;;;;;;2.42;2.22;;;;;13.20;100488.00;;;;5045813;28;20045;-75
2021/09/10 04:25:05;;;;;;;319.95;37.13;;;;;13.30;100506.00;;;;5045808;28;20056;-74
2021/09/10 04:27:34;;;;;;;14.55;13.50;;;;;13.30;100494.00;;;;5045785;28;20055;-73
2021/09/10 04:30:05;;;;;;;0.22;0.22;;;;;13.30;100492.00;;;;5045657;28;20053;-76
2021/09/10 04:32:34;;;;;;;0.57;0.22;;;;;13.30;100482.00;;;;5045810;28;20526;-73
2021/09/10 04:35:04;;;;;;;5.25;4.85;;;;;13.40;100487.00;;;;5045558;28;20055;-74
2021/09/10 04:37:34;;;;;;;0.00;0.00;;;;;13.40;100479.00;;;;5046038;28;20052;-73
2021/09/10 04:40:03;;;;;;;4.10;3.00;;;;;13.40;100467.00;;;;5045603;28;20055;-74
2021/09/10 04:42:32;;;;;;;0.05;0.05;;;;;13.40;100470.00;;;;5045258;28;20037;-74
2021/09/10 04:45:01;;;;;;;565.88;171.57;;;;;13.40;100483.00;;;;5045408;28;20075;-74
2021/09/10 04:47:30;;;;;;;256.10;71.75;;;;;13.50;100464.00;;;;5045470;28;20140;-73
2021/09/10 04:49:59;;;;;;;0.63;0.60;;;;;13.50;100463.00;;;;5045699;28;20049;-75
2021/09/10 04:52:28;;;;;;;3.22;2.95;;;;;13.50;100492.00;;;;5045464;28;20634;-74
2021/09/10 04:54:58;;;;;;;0.52;0.52;;;;;13.50;100480.00;;;;5047758;28;20573;-74
2021/09/10 04:57:27;;;;;;;301.73;156.02;;;;;13.50;100468.00;;;;5049264;28;20041;-73
2021/09/10 04:59:55;;;;;;;32.17;28.92;;;;;13.50;100463.00;;;;5048879;28;20056;-74
2021/09/10 05:02:25;;;;;;;54.83;50.17;;;;;13.50;100492.00;;;;5048748;28;20056;-73
2021/09/10 05:04:54;;;;;;;33.72;30.90;;;;;13.60;100469.00;;;;5048865;28;20060;-73
2021/09/10 05:07:23;;;;;;;2.42;1.77;;;;;13.60;100472.00;;;;5048543;28;20049;-74
2021/09/10 05:09:52;;;;;;;1.30;0.93;;;;;13.60;100486.00;;;;5048979;28;20523;-73
2021/09/10 05:12:21;;;;;;;0.90;0.90;;;;;13.60;100481.00;;;;5048888;28;20068;-74
2021/09/10 05:14:52;;;;;;;24.55;22.98;;;;;13.60;100496.00;;;;5049144;28;20040;-74
2021/09/10 05:17:22;;;;;;;0.90;0.50;;;;;13.60;100488.00;;;;5048963;28;20504;-76
2021/09/10 05:19:51;;;;;;;3.83;2.67;;;;;13.60;100493.00;;;;5048332;28;20053;-74
2021/09/10 05:22:20;;;;;;;1.00;0.30;;;;;13.60;100465.00;;;;5048476;28;20048;-74
2021/09/10 05:24:49;;;;;;;3.55;3.35;;;;;13.60;100489.00;;;;5048357;28;20056;-73
2021/09/10 05:27:17;;;;;;;6.72;6.13;;;;;13.50;100483.00;;;;5048489;28;20071;-74
2021/09/10 05:29:46;;;;;;;31.55;29.05;;;;;13.60;100481.00;;;;5048459;28;20520;-76
2021/09/10 05:32:15;;;;;;;0.77;0.32;;;;;13.60;100474.00;;;;5048429;28;20063;-74
2021/09/10 05:34:44;;;;;;;0.40;0.40;;;;;13.60;100470.00;;;;5048079;28;20072;-76
2021/09/10 05:37:13;;;;;;;1.33;0.65;;;;;13.60;100463.00;;;;5048458;28;20073;-74
2021/09/10 05:39:42;;;;;;;4.25;3.08;;;;;13.60;100474.00;;;;5048318;28;20052;-76
2021/09/10 05:42:11;;;;;;;0.68;0.68;;;;;13.60;100467.00;;;;5048474;28;20045;-75
2021/09/10 05:44:40;;;;;;;8.60;8.10;;;;;13.60;100470.00;;;;5048278;28;20048;-72
2021/09/10 05:47:09;;;;;;;0.65;0.40;;;;;13.50;100490.00;;;;5047873;28;20053;-74
2021/09/10 05:49:38;;;;;;;1.10;1.10;;;;;13.50;100468.00;;;;5047023;28;20486;-74
2021/09/10 05:52:10;;;;;;;2.35;2.25;;;;;13.60;100486.00;;;;5048543;28;20408;-74
2021/09/10 05:54:39;;;;;;;2.58;2.47;;;;;13.60;100460.00;;;;5047823;28;20055;-73
2021/09/10 05:57:08;;;;;;;0.40;0.40;;;;;13.60;100473.00;;;;5047579;28;20056;-73
2021/09/10 05:59:37;;;;;;;1.80;0.43;;;;;13.60;100449.00;;;;5047713;28;20048;-74
2021/09/10 06:02:07;;;;;;;2.25;0.30;;;;;13.60;100466.00;;;;5047669;28;20496;-74
2021/09/10 06:04:36;;;;;;;0.30;0.30;;;;;13.60;100452.00;;;;5048047;28;20091;-73
2021/09/10 06:07:05;;;;;;;1.65;0.50;;;;;13.60;100456.00;;;;5045913;28;20052;-76
2021/09/10 06:09:34;;;;;;;5.15;0.40;;;;;13.70;100467.00;;;;5048017;28;20053;-75
2021/09/10 06:12:05;;;;;;;1.60;1.13;;;;;13.70;100465.00;;;;5047388;28;20057;-73
2021/09/10 06:14:34;;;;;;;2.75;2.65;;;;;13.70;100447.00;;;;5047838;28;20049;-74
2021/09/10 06:17:03;;;;;;;0.95;0.20;;;;;13.70;100449.00;;;;5046666;28;20139;-76
2021/09/10 06:19:32;;;;;;;0.82;0.82;;;;;13.70;100455.00;;;;5047748;28;20058;-74
2021/09/10 06:22:01;;;;;;;19.30;18.08;;;;;13.70;100450.00;;;;5047419;28;20527;-75
2021/09/10 06:24:30;;;;;;;0.98;0.90;;;;;13.70;100450.00;;;;5046757;28;20487;-75
2021/09/10 06:26:59;;;;;;;0.38;0.22;;;;;13.80;100466.00;;;;5048184;28;20057;-73
2021/09/10 06:29:28;;;;;;;0.20;0.20;;;;;13.70;100460.00;;;;5047373;28;21133;-74
2021/09/10 06:31:57;;;;;;;0.63;0.63;;;;;13.80;100433.00;;;;5047338;28;20049;-75
2021/09/10 06:34:26;;;;;;;0.88;0.25;;;;;13.80;100448.00;;;;5046967;28;20682;-74
2021/09/10 06:36:55;;;;;;;0.40;0.40;;;;;13.80;100429.00;;;;5046862;28;20067;-74
2021/09/10 06:39:24;;;;;;;0.70;0.70;;;;;13.80;100443.00;;;;5047200;28;20063;-73
2021/09/10 06:41:53;;;;;;;4.35;1.80;;;;;13.90;100454.00;;;;5047294;28;20084;-74
2021/09/10 06:44:22;;;;;;;5.93;5.57;;;;;13.80;100448.00;;;;5046376;28;20049;-74
2021/09/10 06:46:51;;;;;;;1.00;1.00;;;;;13.90;100455.00;;;;5047014;28;20063;-73
2021/09/10 06:49:20;;;;;;;0.10;0.10;;;;;13.90;100453.00;;;;5046952;28;20416;-75
2021/09/10 06:51:49;;;;;;;163.57;140.10;;;;;13.90;100450.00;;;;5047016;28;20064;-73
2021/09/10 06:54:18;;;;;;;304.63;178.35;;;;;13.80;100451.00;;;;5046798;28;20076;-73
2021/09/10 06:56:47;;;;;;;191.98;17.45;;;;;13.80;100466.00;;;;5046406;28;20049;-73
2021/09/10 06:59:19;;;;;;;5.57;0.77;;;;;13.90;100479.00;;;;5046878;28;20064;-74
2021/09/10 07:01:48;;;;;;;0.10;0.10;;;;;13.80;100460.00;;;;5047066;28;20053;-73
2021/09/10 07:04:18;;;;;;;0.20;0.20;;;;;13.80;100472.00;;;;5046614;28;20447;-74
2021/09/10 07:11:21;;;;;;;0.32;0.30;;;;;13.80;100484.00;;;;5046363;28;20070;-73
2021/09/10 07:13:49;;;;;;;;;;;;;13.80;100482.00;;;;5047633;28;20132;-74
2021/09/10 07:16:18;;;;;;;0.88;0.85;;;;;13.80;100471.00;;;;5046449;28;19924;-73
2021/09/10 07:18:47;;;;;;;1.50;1.40;;;;;13.70;100478.00;;;;5046212;28;20107;-73
2021/09/10 07:21:16;;;;;;;0.63;0.40;;;;;13.70;100466.00;;;;5045749;28;20492;-75
2021/09/10 07:23:46;;;;;;;0.43;0.30;;;;;13.70;100480.00;;;;5046736;28;20053;-74
2021/09/10 07:26:15;;;;;;;0.50;0.40;;;;;13.70;100464.00;;;;5045881;28;20045;-73
2021/09/10 07:28:44;;;;;;;1.10;1.10;;;;;13.70;100478.00;;;;5046298;28;20169;-73
2021/09/10 07:31:13;;;;;;;1.15;0.93;;;;;13.70;100492.00;;;;5046060;28;20532;-74
2021/09/10 07:33:43;;;;;;;7.45;6.95;;;;;13.70;100476.00;;;;5046840;28;20260;-73
2021/09/10 07:36:12;;;;;;;0.30;0.30;;;;;13.70;100500.00;;;;5046765;28;20041;-75
2021/09/10 07:38:41;;;;;;;0.10;0.10;;;;;13.70;100480.00;;;;5046403;28;20056;-74
2021/09/10 07:41:10;;;;;;;4.60;4.35;;;;;13.70;100477.00;;;;5046227;28;20061;-73
2021/09/10 07:43:39;;;;;;;1.58;0.38;;;;;13.70;100483.00;;;;5045735;28;20100;-74
2021/09/10 07:46:08;;;;;;;1.95;0.70;;;;;13.70;100509.00;;;;5046631;28;20060;-73
2021/09/10 07:48:37;;;;;;;1.20;0.47;;;;;13.70;100485.00;;;;5045943;28;20049;-75
2021/09/10 07:51:06;;;;;;;0.80;0.40;;;;;13.70;100508.00;;;;5045624;28;20079;-73
2021/09/10 07:53:35;;;;;;;0.95;0.40;;;;;13.70;100492.00;;;;5046429;28;20049;-73
2021/09/10 07:56:04;;;;;;;1.17;0.30;;;;;13.70;100510.00;;;;5045425;28;20095;-74
2021/09/10 07:58:33;;;;;;;1.27;0.60;;;;;13.70;100525.00;;;;5045783;28;20053;-75
2021/09/10 08:01:02;;;;;;;1.17;0.50;;;;;13.60;100506.00;;;;5045999;28;20135;-73
2021/09/10 08:03:31;;;;;;;0.90;0.70;;;;;13.60;100501.00;;;;5045926;28;20542;-74
2021/09/10 08:06:01;;;;;;;3.80;0.57;;;;;13.60;100504.00;;;;5045889;28;20051;-74
2021/09/10 08:08:30;;;;;;;0.00;0.00;;;;;13.60;100497.00;;;;5045977;28;20045;-75
2021/09/10 08:10:59;;;;;;;12.07;1.48;;;;;13.60;100505.00;;;;5045903;28;20051;-74
2021/09/10 08:13:29;;;;;;;0.38;0.38;;;;;13.60;100522.00;;;;5045940;28;20056;-73
2021/09/10 08:15:59;;;;;;;1.13;0.60;;;;;13.70;100520.00;;;;5045734;28;20084;-74
2021/09/10 08:18:28;;;;;;;1.05;0.70;;;;;13.70;100530.00;;;;5046221;28;20099;-74
2021/09/10 08:21:01;;;;;;;1.48;1.25;;;;;13.70;100514.00;;;;5045866;28;20049;-74
2021/09/10 08:23:30;;;;;;;4.10;1.13;;;;;13.60;100527.00;;;;5045535;28;20524;-73
2021/09/10 08:26:00;;;;;;;91.00;7.90;;;;;13.60;100521.00;;;;5045545;28;20099;-73
2021/09/10 08:28:29;;;;;;;1.95;0.90;;;;;13.60;100529.00;;;;5045746;28;20083;-73
2021/09/10 08:30:58;;;;;;;1.33;0.70;;;;;13.70;100537.00;;;;5049745;28;20059;-73
2021/09/10 08:33:27;;;;;;;4.32;1.65;;;;;13.60;100533.00;;;;5049226;28;20625;-73
2021/09/10 08:35:57;;;;;;;2.88;0.77;;;;;13.60;100523.00;;;;5049783;28;20159;-74
2021/09/10 08:38:26;;;;;;;1.30;1.20;;;;;13.60;100529.00;;;;5049711;28;20051;-74
2021/09/10 08:40:59;;;;;;;0.80;0.47;;;;;13.60;100536.00;;;;5049393;28;20048;-75
2021/09/10 08:43:28;;;;;;;1.73;1.17;;;;;13.60;100529.00;;;;5048964;28;20076;-74
2021/09/10 08:45:58;;;;;;;3.38;0.70;;;;;13.60;100542.00;;;;5048720;28;20049;-75
2021/09/10 08:48:27;;;;;;;4.50;0.90;;;;;13.60;100526.00;;;;5048318;28;20049;-74
2021/09/10 08:50:57;;;;;;;2.95;0.70;;;;;13.60;100531.00;;;;5049300;28;20622;-76
2021/09/10 08:53:26;;;;;;;0.98;0.60;;;;;13.60;100539.00;;;;5049339;28;20051;-76
2021/09/10 08:55:56;;;;;;;2.58;0.90;;;;;13.60;100534.00;;;;5048963;28;20052;-74
2021/09/10 08:58:25;;;;;;;3.30;0.77;;;;;13.60;100563.00;;;;5049405;28;20053;-75
2021/09/10 09:00:59;;;;;;;3.13;0.88;;;;;13.70;100569.00;;;;5049070;28;20060;-74
2021/09/10 09:03:30;;;;;;;1.80;0.80;;;;;13.70;100550.00;;;;5049150;28;20065;-74
2021/09/10 09:06:00;;;;;;;3.47;0.90;;;;;13.70;100568.00;;;;5048855;28;20283;-76
2021/09/10 09:08:29;;;;;;;2.08;0.60;;;;;13.70;100543.00;;;;5049313;28;20056;-76
2021/09/10 09:11:04;;;;;;;19.45;17.80;;;;;13.60;100544.00;;;;5048926;28;20057;-75
2021/09/10 09:13:38;;;;;;;3.33;3.13;;;;;13.70;100571.00;;;;5048617;28;20793;-76
2021/09/10 09:16:27;;;;;;;1.67;1.05;;;;;13.70;100556.00;;;;5048409;28;20049;-75
2021/09/10 09:18:58;;;;;;;3.10;0.70;;;;;13.70;100562.00;;;;5048921;28;20569;-75
2021/09/10 09:21:31;;;;;;;;;;;;;13.70;100591.00;;;;5049260;28;20055;-76
2021/09/10 09:24:22;;;;;;;2.45;1.00;;;;;13.60;100591.00;;;;5048910;28;19951;-76
2021/09/10 09:26:53;;;;;;;20.38;18.75;;;;;13.60;100587.00;;;;5048588;28;20136;-75
2021/09/10 09:29:23;;;;;;;1.40;1.40;;;;;13.50;100593.00;;;;5048858;28;20056;-75
2021/09/10 09:31:57;;;;;;;12.05;11.20;;;;;13.50;100595.00;;;;5048496;28;20049;-73
2021/09/10 09:34:46;;;;;;;1.08;0.60;;;;;13.50;100591.00;;;;5048380;28;20071;-75
2021/09/10 09:37:17;;;;;;;0.60;0.60;;;;;13.50;100594.00;;;;5048515;28;20091;-75
2021/09/10 09:40:05;;;;;;;2.03;1.92;;;;;13.50;100631.00;;;;5048187;28;20520;-76
2021/09/10 09:42:36;;;;;;;2.15;0.40;;;;;13.50;100609.00;;;;5046873;28;20407;-77
2021/09/10 09:45:24;;;;;;;2.50;1.38;;;;;13.50;100604.00;;;;5048144;28;20049;-75
2021/09/10 09:47:53;;;;;;;9.45;8.60;;;;;13.50;100622.00;;;;5047592;28;20088;-75
2021/09/10 09:50:23;;;;;;;0.82;0.43;;;;;13.50;100627.00;;;;5048094;28;20052;-74
2021/09/10 09:52:52;;;;;;;2.05;0.45;;;;;13.50;100641.00;;;;5047473;28;20067;-75
2021/09/10 09:55:22;;;;;;;1.48;0.90;;;;;13.50;100624.00;;;;5048128;28;20048;-75
2021/09/10 09:57:58;;;;;;;0.82;0.32;;;;;13.50;100636.00;;;;5046633;28;20088;-75
2021/09/10 10:00:29;;;;;;;3.72;3.35;;;;;13.50;100628.00;;;;5047449;28;20108;-76
2021/09/10 10:03:01;;;;;;;3.08;0.90;;;;;13.50;100632.00;;;;5047772;28;20060;-74
2021/09/10 10:05:32;;;;;;;1.08;0.40;;;;;13.50;100650.00;;;;5047782;28;20084;-74
2021/09/10 10:08:06;;;;;;;3.63;0.80;;;;;13.50;100644.00;;;;5047331;28;20053;-75
2021/09/10 10:10:48;;;;;;;3.20;0.80;;;;;13.60;100665.00;;;;5047418;28;20527;-75
2021/09/10 10:13:30;;;;;;;0.00;0.00;;;;;13.50;100644.00;;;;5047853;28;20060;-76
2021/09/10 10:15:59;;;;;;;4.28;0.95;;;;;13.60;100645.00;;;;5047984;28;20075;-75
2021/09/10 10:18:48;;;;;;;4.05;0.60;;;;;13.60;100651.00;;;;5047281;28;20057;-75
2021/09/10 10:21:17;;;;;;;0.45;0.45;;;;;13.60;100659.00;;;;5046902;28;20527;-74
2021/09/10 10:23:46;;;;;;;0.65;0.20;;;;;13.60;100689.00;;;;5047650;28;20501;-74
2021/09/10 10:26:21;;;;;;;0.20;0.20;;;;;13.70;100683.00;;;;5046163;28;20049;-74
2021/09/10 10:28:54;;;;;;;1.80;0.17;;;;;13.70;100681.00;;;;5045337;28;20059;-73
2021/09/10 10:32:01;;;;;;;0.20;0.10;;;;;13.70;100708.00;;;;5047331;28;20496;-74
2021/09/10 10:34:32;;;;;;;2.30;0.65;;;;;13.70;100688.00;;;;5046738;28;20543;-74
2021/09/10 10:37:02;;;;;;;0.25;0.17;;;;;13.70;100682.00;;;;5047370;28;20052;-75
2021/09/10 10:39:31;;;;;;;0.10;0.10;;;;;13.70;100685.00;;;;5047383;28;20064;-74
2021/09/10 10:42:05;;;;;;;0.65;0.40;;;;;13.70;100692.00;;;;5047337;28;20049;-74
2021/09/10 10:44:35;;;;;;;0.73;0.30;;;;;13.80;100694.00;;;;5047258;28;20045;-75
2021/09/10 10:47:12;;;;;;;0.38;0.28;;;;;13.90;100696.00;;;;5046731;28;20056;-74
2021/09/10 10:49:45;;;;;;;0.10;0.08;;;;;13.90;100704.00;;;;5047759;28;20405;-74
2021/09/10 10:52:35;;;;;;;0.32;0.10;;;;;14.00;100689.00;;;;5046838;28;20088;-74
2021/09/10 10:55:23;;;;;;;1.23;0.28;;;;;14.00;100701.00;;;;5047198;28;20048;-74
2021/09/10 10:57:54;;;;;;;0.77;0.77;;;;;14.00;100708.00;;;;5046599;28;20080;-75
2021/09/10 11:00:28;;;;;;;;;;;;;14.10;100708.00;;;;5047043;28;20049;-75
2021/09/10 11:03:18;;;;;;;0.80;0.70;;;;;14.10;100718.00;;;;5047055;28;20028;-75
2021/09/10 11:05:52;;;;;;;0.75;0.32;;;;;14.10;100706.00;;;;5046566;28;20095;-75
2021/09/10 11:08:38;;;;;;;2.53;0.70;;;;;14.10;100724.00;;;;5046615;28;20053;-74
2021/09/10 11:11:07;;;;;;;169.75;147.10;;;;;14.20;100698.00;;;;5046635;28;20055;-75
2021/09/10 11:13:42;;;;;;;1.05;0.40;;;;;14.30;100719.00;;;;5046897;28;20045;-77
2021/09/10 11:16:26;;;;;;;0.32;0.30;;;;;14.30;100708.00;;;;5046710;28;20081;-75
2021/09/10 11:18:56;;;;;;;4.63;4.22;;;;;14.30;100726.00;;;;5046550;28;20493;-75
2021/09/10 11:21:29;;;;;;;1.58;1.30;;;;;14.40;100724.00;;;;5046551;28;20055;-76
2021/09/10 11:24:07;;;;;;;0.80;0.30;;;;;14.50;100733.00;;;;5046343;28;20053;-75
2021/09/10 11:26:37;;;;;;;1.85;0.68;;;;;14.60;100726.00;;;;5045999;28;20041;-75
2021/09/10 11:29:10;;;;;;;0.30;0.30;;;;;14.60;100719.00;;;;5045039;28;20049;-74
2021/09/10 11:31:39;;;;;;;0.55;0.40;;;;;14.60;100707.00;;;;5047022;28;20064;-75
2021/09/10 11:34:08;;;;;;;4.45;1.08;;;;;14.70;100746.00;;;;5046124;28;20052;-76
2021/09/10 11:36:37;;;;;;;0.40;0.40;;;;;14.80;100722.00;;;;5045924;28;20052;-74
2021/09/10 11:39:08;;;;;;;3.45;0.40;;;;;14.90;100726.00;;;;5045676;28;20049;-75
2021/09/10 11:41:37;;;;;;;0.33;0.30;;;;;15.00;100738.00;;;;5046498;28;20427;-76
2021/09/10 11:44:12;;;;;;;0.10;0.10;;;;;15.00;100720.00;;;;5046349;28;20049;-75
2021/09/10 11:46:41;;;;;;;1.42;0.80;;;;;15.10;100731.00;;;;5045954;28;20052;-74
2021/09/10 11:49:10;;;;;;;1.80;0.60;;;;;15.20;100720.00;;;;5045646;28;20084;-73
2021/09/10 11:51:47;;;;;;;5.38;0.90;;;;;15.20;100748.00;;;;5045618;28;20059;-74
2021/09/10 11:54:19;;;;;;;1.58;0.47;;;;;15.20;100721.00;;;;5046174;28;20134;-73
2021/09/10 11:56:49;;;;;;;3.08;0.50;;;;;15.30;100732.00;;;;5045907;28;20053;-73
2021/09/10 11:59:19;;;;;;;1.88;1.77;;;;;15.30;100736.00;;;;5045972;28;20045;-74
2021/09/10 12:01:49;;;;;;;8.65;2.33;;;;;15.40;100736.00;;;;5045018;28;20051;-73
2021/09/10 12:04:36;;;;;;;3.33;1.30;;;;;15.40;100739.00;;;;5047184;28;20049;-74
2021/09/10 12:07:08;;;;;;;6.18;1.40;;;;;15.50;100745.00;;;;5050236;28;20405;-75
2021/09/10 12:09:40;;;;;;;7.85;1.23;;;;;15.60;100743.00;;;;5049775;28;20049;-74
2021/09/10 12:12:18;;;;;;;5.15;1.63;;;;;15.60;100745.00;;;;5049820;28;20497;-74
2021/09/10 12:14:53;;;;;;;2.65;1.20;;;;;15.60;100747.00;;;;5049645;28;20132;-73
2021/09/10 12:17:27;;;;;;;2.47;1.27;;;;;15.60;100753.00;;;;5050094;28;20049;-74
2021/09/10 12:20:05;;;;;;;3.60;3.35;;;;;15.60;100756.00;;;;5049639;28;20049;-73
2021/09/10 12:22:52;;;;;;;2.20;1.42;;;;;15.60;100756.00;;;;5049626;28;20053;-73
2021/09/10 12:25:37;;;;;;;3.20;1.70;;;;;15.60;100764.00;;;;5049742;28;20406;-74
2021/09/10 12:28:10;;;;;;;4.93;1.30;;;;;15.50;100773.00;;;;5049437;28;20049;-74